Time;durP1;ratioP1;P1;durP2;ratioP2;P2;SDS_P1;SDS_P2;PMS_P1;PMS_P2;Temp;Humidity;BMP_temperature;BMP_pressure;BME280_temperature;BME280_humidity;BME280_pressure;Samples;Min_cycle;Max_cycle;Signal;HPM_P1;HPM_P2
2021/12/06 00:01:40;;;;;;;23.23;12.18;;;;;;;0.20;53.81;101370.59;4947406;28;20073;-67
2021/12/06 00:04:28;;;;;;;24.17;11.88;;;;;;;0.50;53.03;101371.75;4950825;28;20092;-67
2021/12/06 00:06:59;;;;;;;35.88;13.38;;;;;;;0.49;52.75;101380.34;4920580;28;20669;-66
2021/12/06 00:09:27;;;;;;;25.80;12.23;;;;;;;0.45;53.20;101379.44;4920945;29;20044;-66
2021/12/06 00:12:01;;;;;;;29.63;11.68;;;;;;;0.54;53.09;101378.66;4922490;28;20039;-67
2021/12/06 00:14:29;;;;;;;29.92;12.40;;;;;;;0.58;52.71;101385.56;4912286;29;20102;-67
2021/12/06 00:16:58;;;;;;;29.77;12.25;;;;;;;0.60;52.74;101389.00;4916275;28;20511;-68
2021/12/06 00:19:25;;;;;;;27.30;12.18;;;;;;;0.59;52.86;101392.44;4916317;29;20438;-67
2021/12/06 00:21:51;;;;;;;26.67;11.43;;;;;;;0.63;52.68;101388.19;4933641;28;20032;-67
2021/12/06 00:24:17;;;;;;;26.92;11.85;;;;;;;0.63;52.92;101391.59;4913141;29;20058;-68
2021/12/06 00:26:43;;;;;;;34.20;12.85;;;;;;;0.71;52.56;101396.84;4927856;28;20549;-67
2021/12/06 00:29:09;;;;;;;27.40;13.48;;;;;;;0.59;52.78;101392.44;4911501;29;20318;-67
2021/12/06 00:31:36;;;;;;;24.08;12.60;;;;;;;0.62;52.59;101397.63;4917154;28;20036;-67
2021/12/06 00:34:07;;;;;;;26.85;12.82;;;;;;;0.67;52.68;101389.94;4916792;29;20032;-67
2021/12/06 00:36:39;;;;;;;24.08;11.63;;;;;;;0.45;53.31;101388.88;4932582;28;20041;-67
2021/12/06 00:39:08;;;;;;;21.50;11.57;;;;;;;0.25;53.32;101386.06;4918538;29;20074;-69
2021/12/06 00:41:34;;;;;;;32.58;12.35;;;;;;;0.34;53.25;101383.59;4917026;28;20038;-68
2021/12/06 00:44:02;;;;;;;27.63;12.57;;;;;;;0.16;53.63;101373.97;4919054;28;20515;-69
2021/12/06 00:46:27;;;;;;;25.55;12.25;;;;;;;0.26;53.30;101372.41;4921404;28;20027;-66
2021/12/06 00:48:53;;;;;;;25.55;10.60;;;;;;;0.21;53.36;101374.91;4928046;28;20035;-66
2021/12/06 00:51:19;;;;;;;26.17;12.75;;;;;;;-0.08;54.10;101371.13;4918098;29;20031;-67
2021/12/06 00:53:45;;;;;;;29.33;13.38;;;;;;;0.15;53.76;101379.97;4910469;28;20482;-66
2021/12/06 00:56:11;;;;;;;30.40;12.90;;;;;;;-0.04;53.96;101383.16;4918803;29;20031;-66
2021/12/06 00:58:38;;;;;;;28.42;11.63;;;;;;;0.01;54.05;101384.06;4917813;28;20046;-66
2021/12/06 01:01:05;;;;;;;26.45;12.15;;;;;;;0.05;53.78;101391.00;4920675;29;20576;-67
2021/12/06 01:03:34;;;;;;;27.35;12.32;;;;;;;-0.03;54.15;101385.78;4913251;28;20055;-68
2021/12/06 01:06:00;;;;;;;31.45;12.63;;;;;;;0.02;53.90;101388.38;4928835;28;20024;-66
2021/12/06 01:08:26;;;;;;;23.67;11.70;;;;;;;-0.04;54.20;101396.03;4918745;28;20531;-66
2021/12/06 01:10:53;;;;;;;23.23;12.68;;;;;;;0.06;53.70;101390.16;4913209;28;20124;-66
2021/12/06 01:13:19;;;;;;;27.35;12.77;;;;;;;0.09;53.45;101400.47;4916987;28;20568;-67
2021/12/06 01:15:45;;;;;;;29.38;12.93;;;;;;;-0.03;53.75;101390.06;4918272;29;20043;-67
2021/12/06 01:18:13;;;;;;;30.83;12.38;;;;;;;-0.17;53.96;101395.00;4912831;29;20036;-67
2021/12/06 01:20:53;;;;;;;31.30;13.07;;;;;;;-0.33;54.88;101396.50;4912106;29;20091;-67
2021/12/06 01:23:25;;;;;;;32.67;12.52;;;;;;;-0.20;54.26;101403.53;4916279;29;20217;-67
2021/12/06 01:41:37;;;;;;;31.33;13.20;;;;;;;-0.21;54.21;101435.22;4918953;28;20042;-66
2021/12/06 01:44:07;;;;;;;28.48;13.10;;;;;;;-0.08;53.91;101438.81;4915730;29;20034;-67
2021/12/06 01:46:46;;;;;;;30.17;13.52;;;;;;;-0.14;54.21;101439.59;4931969;28;20039;-66
2021/12/06 01:49:12;;;;;;;31.42;13.90;;;;;;;0.06;53.78;101442.41;4912873;29;20039;-66
2021/12/06 01:51:39;;;;;;;27.52;12.05;;;;;;;0.13;53.60;101452.78;4918563;28;20036;-66
2021/12/06 01:54:07;;;;;;;30.73;13.77;;;;;;;0.11;53.46;101455.31;4934101;28;20523;-66
2021/12/06 01:56:32;;;;;;;25.70;12.75;;;;;;;0.17;53.61;101441.72;4929901;28;20035;-67
2021/12/06 01:58:59;;;;;;;33.25;13.07;;;;;;;0.21;53.38;101448.59;4916086;28;20040;-66
2021/12/06 02:01:27;;;;;;;29.67;13.10;;;;;;;0.17;53.39;101442.56;4916852;29;20047;-66
2021/12/06 02:03:53;;;;;;;29.98;12.73;;;;;;;0.19;53.44;101439.97;4905467;29;20043;-67
2021/12/06 02:06:19;;;;;;;31.60;13.15;;;;;;;0.18;53.76;101441.69;4915859;29;20040;-67
2021/12/06 02:08:47;;;;;;;25.88;12.15;;;;;;;0.18;53.94;101436.56;4918903;28;20027;-67
2021/12/06 02:11:13;;;;;;;31.23;12.95;;;;;;;0.18;53.64;101436.56;4929360;28;20087;-67
2021/12/06 02:13:51;;;;;;;29.98;13.90;;;;;;;0.12;53.79;101439.03;4935129;28;20040;-67
2021/12/06 02:16:21;;;;;;;27.58;13.90;;;;;;;0.15;53.88;101430.53;4921448;29;20105;-67
2021/12/06 02:18:54;;;;;;;28.85;12.02;;;;;;;0.16;53.78;101432.25;4919333;28;20044;-67
2021/12/06 02:21:20;;;;;;;;;;;;;;;0.14;53.63;101434.78;4915231;29;20050;-67
2021/12/06 02:23:49;;;;;;;30.02;11.63;;;;;;;0.20;53.25;101434.88;4932824;28;19919;-68
2021/12/06 02:26:17;;;;;;;33.67;13.05;;;;;;;0.12;53.70;101439.03;4921069;29;20501;-67
2021/12/06 02:28:43;;;;;;;28.05;12.07;;;;;;;0.19;53.17;101443.44;4936011;28;20087;-67
2021/12/06 02:31:10;;;;;;;35.22;14.73;;;;;;;0.20;53.51;101441.72;4918260;29;20327;-67
2021/12/06 02:33:36;;;;;;;31.05;12.52;;;;;;;0.24;53.30;101441.78;4921508;29;20036;-67
2021/12/06 02:36:02;;;;;;;36.28;13.77;;;;;;;0.19;53.66;101443.44;4931735;28;20069;-68
2021/12/06 02:38:28;;;;;;;30.13;12.68;;;;;;;0.22;53.23;101451.19;4915064;28;20035;-69
2021/12/06 02:40:54;;;;;;;33.92;14.40;;;;;;;0.02;54.06;101450.94;4929693;28;20512;-69
2021/12/06 02:43:20;;;;;;;31.25;13.43;;;;;;;0.26;53.41;101452.94;4929030;28;20051;-69
2021/12/06 02:45:46;;;;;;;29.77;14.48;;;;;;;0.23;53.22;101450.34;4938213;28;20083;-70
2021/12/06 02:48:13;;;;;;;31.83;13.98;;;;;;;0.24;53.23;101452.06;4919877;29;20228;-70
2021/12/06 02:50:51;;;;;;;35.95;13.93;;;;;;;0.25;53.38;101461.50;4914620;29;20048;-70
2021/12/06 02:53:19;;;;;;;30.13;13.15;;;;;;;0.28;53.23;101463.25;4930489;28;20035;-70
2021/12/06 02:55:51;;;;;;;28.75;12.15;;;;;;;0.18;53.94;101459.69;4913709;29;20035;-70
2021/12/06 03:01:08;;;;;;;33.75;14.43;;;;;;;0.24;53.43;101459.78;4918694;29;20059;-70
2021/12/06 03:03:33;;;;;;;34.17;14.13;;;;;;;0.28;53.72;101464.13;4911724;29;20372;-70
2021/12/06 03:05:59;;;;;;;24.50;12.52;;;;;;;0.24;53.57;101467.50;4918846;29;20032;-70
2021/12/06 03:09:06;;;;;;;31.15;13.70;;;;;;;0.25;53.77;101471.78;4919686;29;20656;-71
2021/12/06 03:11:35;;;;;;;32.20;14.00;;;;;;;0.24;53.50;101470.06;4896920;29;20085;-70
2021/12/06 03:14:02;;;;;;;32.28;12.00;;;;;;;0.25;53.56;101469.22;4932873;28;20032;-65
2021/12/06 03:16:29;;;;;;;34.75;14.65;;;;;;;0.27;53.60;101464.94;4920075;29;20575;-65
2021/12/06 03:18:56;;;;;;;29.65;14.02;;;;;;;0.30;53.62;101458.13;4922471;28;20085;-70
2021/12/06 03:21:23;;;;;;;32.88;14.32;;;;;;;0.30;53.47;101458.13;4922466;29;20052;-70
2021/12/06 03:23:53;;;;;;;34.95;14.90;;;;;;;0.31;53.37;101467.56;4924844;28;20035;-67
2021/12/06 03:26:19;;;;;;;29.05;14.18;;;;;;;0.29;53.77;101467.56;4923241;29;20490;-66
2021/12/06 03:28:46;;;;;;;33.88;14.95;;;;;;;0.32;53.84;101479.56;4916858;28;20067;-67
2021/12/06 03:31:16;;;;;;;28.98;13.85;;;;;;;0.22;53.53;101481.19;4918116;29;20043;-67
2021/12/06 03:33:46;;;;;;;29.40;13.15;;;;;;;0.21;53.77;101472.63;4917662;29;20032;-67
2021/12/06 03:36:14;;;;;;;35.08;15.35;;;;;;;0.28;53.69;101474.41;4934213;28;20032;-66
2021/12/06 03:38:42;;;;;;;31.88;12.95;;;;;;;0.35;53.70;101467.63;4911999;29;20119;-67
2021/12/06 03:41:10;;;;;;;23.98;12.38;;;;;;;0.33;53.58;101471.03;4933517;28;20044;-67
2021/12/06 03:43:36;;;;;;;30.67;15.13;;;;;;;0.25;53.82;101474.34;4912135;28;20491;-67
2021/12/06 03:46:02;;;;;;;27.10;12.93;;;;;;;0.20;53.92;101476.00;4933737;28;20086;-67
2021/12/06 03:48:28;;;;;;;35.97;14.23;;;;;;;0.20;54.21;101475.16;4916916;28;20051;-67
2021/12/06 03:50:55;;;;;;;31.48;13.57;;;;;;;0.24;53.99;101480.34;4919219;29;20055;-66
2021/12/06 03:53:22;;;;;;;26.20;14.35;;;;;;;0.30;53.87;101481.25;4915544;29;20099;-66
2021/12/06 03:55:48;;;;;;;29.75;13.45;;;;;;;0.30;53.89;101482.16;4924777;28;20039;-67
2021/12/06 03:58:14;;;;;;;28.90;15.45;;;;;;;0.32;53.64;101489.84;4933311;28;20056;-67
2021/12/06 04:00:40;;;;;;;26.92;13.35;;;;;;;0.30;54.04;101491.53;4928204;28;20062;-66
2021/12/06 04:03:08;;;;;;;34.08;14.20;;;;;;;0.37;53.59;101495.94;4933848;28;20645;-66
2021/12/06 04:05:34;;;;;;;30.40;13.80;;;;;;;0.41;53.58;101500.25;4919300;29;20035;-67
2021/12/06 04:07:59;;;;;;;30.58;13.75;;;;;;;0.36;53.74;101496.78;4915165;28;20068;-67
2021/12/06 04:10:26;;;;;;;35.45;14.50;;;;;;;0.30;53.87;101489.88;4913653;29;20063;-67
2021/12/06 04:12:55;;;;;;;29.60;13.65;;;;;;;0.35;54.03;101505.34;4912375;28;20374;-67
2021/12/06 04:15:22;;;;;;;27.05;13.95;;;;;;;0.23;54.22;101501.78;4917011;29;20031;-67
2021/12/06 04:17:48;;;;;;;28.85;14.18;;;;;;;0.18;54.01;101502.53;4933059;28;20532;-66
2021/12/06 04:20:14;;;;;;;29.35;14.15;;;;;;;0.27;54.21;101493.22;4934731;28;20378;-67
2021/12/06 04:22:41;;;;;;;32.53;14.60;;;;;;;0.14;54.67;101506.78;4933420;28;20075;-66
2021/12/06 04:25:09;;;;;;;31.40;13.98;;;;;;;0.20;54.18;101501.72;4933916;28;20027;-67
2021/12/06 04:27:39;;;;;;;25.17;12.57;;;;;;;0.16;54.31;101499.94;4912105;29;20175;-67
2021/12/06 04:30:08;;;;;;;29.00;11.38;;;;;;;0.29;54.25;101500.97;4930505;28;20229;-66
2021/12/06 04:32:35;;;;;;;30.30;13.80;;;;;;;0.35;53.87;101510.50;4913476;28;20031;-66
2021/12/06 04:35:01;;;;;;;34.22;13.50;;;;;;;0.37;53.78;101519.94;4911566;29;20024;-66
2021/12/06 04:37:27;;;;;;;33.20;15.35;;;;;;;0.43;53.89;101524.28;4934360;28;20043;-65
2021/12/06 04:39:54;;;;;;;32.15;14.38;;;;;;;0.44;53.77;101528.59;4929112;28;20496;-65
2021/12/06 04:42:21;;;;;;;29.08;13.30;;;;;;;0.45;53.93;101520.03;4917595;29;20074;-66
2021/12/06 04:44:48;;;;;;;31.70;15.00;;;;;;;0.47;53.74;101518.34;4915853;29;20482;-66
2021/12/06 04:47:15;;;;;;;32.08;13.98;;;;;;;0.42;53.70;101527.72;4910894;29;20035;-66
2021/12/06 04:49:41;;;;;;;32.58;14.52;;;;;;;0.41;53.83;101520.81;4917399;28;20846;-66
2021/12/06 04:52:11;;;;;;;39.30;16.38;;;;;;;0.40;53.45;101525.13;4916510;29;20155;-66
2021/12/06 04:54:40;;;;;;;30.30;13.60;;;;;;;0.36;54.06;101527.63;4912961;29;20032;-66
2021/12/06 04:57:23;;;;;;;32.88;15.27;;;;;;;0.48;53.66;101540.66;4902270;29;20040;-66
2021/12/06 04:59:55;;;;;;;30.45;14.30;;;;;;;0.52;53.72;101538.97;4921011;29;20317;-67
2021/12/06 05:02:33;;;;;;;28.85;13.43;;;;;;;0.53;53.52;101546.72;4916046;28;20044;-66
2021/12/06 05:05:06;;;;;;;31.83;14.07;;;;;;;0.56;53.47;101538.16;4920203;29;20031;-66
2021/12/06 05:07:40;;;;;;;33.27;13.83;;;;;;;0.53;53.63;101544.16;4912554;28;20092;-69
2021/12/06 05:10:08;;;;;;;33.60;15.38;;;;;;;0.55;53.54;101539.88;4920200;29;20350;-69
2021/12/06 05:12:34;;;;;;;29.50;13.73;;;;;;;0.46;53.72;101538.06;4918100;28;20489;-68
2021/12/06 05:15:00;;;;;;;29.98;14.70;;;;;;;0.46;53.58;101537.22;4916840;29;20492;-68
2021/12/06 05:17:28;;;;;;;29.85;14.43;;;;;;;0.54;53.57;101543.28;4915839;28;20423;-68
2021/12/06 05:19:56;;;;;;;27.80;13.82;;;;;;;0.42;53.71;101549.16;4928655;28;20373;-68
2021/12/06 05:22:22;;;;;;;38.33;17.00;;;;;;;0.57;53.20;101547.59;4926455;28;20051;-68
2021/12/06 05:24:47;;;;;;;32.30;14.20;;;;;;;0.56;53.39;101541.59;4914399;28;20489;-68
2021/12/06 05:27:13;;;;;;;35.60;14.52;;;;;;;0.55;53.36;101544.19;4918948;28;20849;-68
2021/12/06 05:29:45;;;;;;;34.25;15.35;;;;;;;0.56;53.48;101548.47;4907471;29;20497;-67
2021/12/06 05:32:11;;;;;;;38.88;15.07;;;;;;;0.54;53.52;101555.28;4918308;28;20043;-67
2021/12/06 05:34:40;;;;;;;28.65;13.85;;;;;;;0.56;53.39;101551.03;4924834;29;20020;-67
2021/12/06 05:37:10;;;;;;;35.33;15.05;;;;;;;0.56;53.31;101557.03;4923262;28;20106;-66
2021/12/06 05:39:36;;;;;;;31.30;15.15;;;;;;;0.49;53.53;101560.38;4918708;29;20047;-66
2021/12/06 05:42:06;;;;;;;25.98;13.45;;;;;;;0.58;53.22;101559.63;4923691;28;20142;-67
2021/12/06 05:44:32;;;;;;;33.78;14.15;;;;;;;0.57;53.77;101566.50;4922522;29;20047;-66
2021/12/06 05:46:58;;;;;;;29.45;15.18;;;;;;;0.53;53.55;101562.16;4923577;28;20579;-66
2021/12/06 05:49:23;;;;;;;32.38;15.15;;;;;;;0.52;53.38;101557.84;4919686;29;20055;-67
2021/12/06 05:51:50;;;;;;;29.63;15.05;;;;;;;0.53;53.42;101554.44;4920473;28;20505;-67
2021/12/06 05:54:16;;;;;;;35.38;16.33;;;;;;;0.51;53.29;101553.56;4920648;28;20543;-68
2021/12/06 05:56:42;;;;;;;29.60;14.75;;;;;;;0.54;53.36;101556.16;4918188;28;20480;-67
2021/12/06 05:59:08;;;;;;;32.50;15.68;;;;;;;0.57;53.14;101558.78;4923839;29;20032;-67
2021/12/06 06:01:33;;;;;;;34.40;15.27;;;;;;;0.53;53.14;101554.44;4920992;29;20040;-67
2021/12/06 06:04:01;;;;;;;33.50;16.70;;;;;;;0.56;52.88;101545.88;4932815;28;20497;-66
2021/12/06 06:06:36;;;;;;;36.78;15.65;;;;;;;0.42;53.63;101545.72;4915985;28;20038;-65
2021/12/06 06:09:06;;;;;;;29.05;14.18;;;;;;;0.39;53.70;101541.41;4921630;29;20104;-65
2021/12/06 06:11:34;;;;;;;32.38;14.77;;;;;;;0.39;53.42;101538.84;4920422;29;20094;-66
2021/12/06 06:14:01;;;;;;;33.45;15.57;;;;;;;0.38;53.71;101546.53;4916598;28;20406;-65
2021/12/06 06:16:31;;;;;;;34.22;15.20;;;;;;;0.37;53.40;101552.53;4923602;29;20048;-66
2021/12/06 06:18:57;;;;;;;36.63;15.23;;;;;;;0.29;53.62;101547.25;4930721;28;20477;-65
2021/12/06 06:21:22;;;;;;;30.90;14.07;;;;;;;0.28;53.92;101542.97;4921334;28;20028;-66
2021/12/06 06:23:48;;;;;;;32.35;14.48;;;;;;;0.34;53.94;101537.88;4921424;28;20711;-66
2021/12/06 06:26:14;;;;;;;34.28;16.13;;;;;;;0.31;53.91;101540.44;4919372;29;20412;-65
2021/12/06 06:28:39;;;;;;;36.40;16.48;;;;;;;0.36;53.82;101537.91;4922618;28;20045;-66
2021/12/06 06:31:05;;;;;;;34.38;15.70;;;;;;;0.28;53.71;101541.25;4925497;29;20035;-66
2021/12/06 06:33:30;;;;;;;35.97;15.48;;;;;;;0.33;53.83;101538.75;4922241;28;20056;-66
2021/12/06 06:35:56;;;;;;;31.27;15.20;;;;;;;0.32;53.60;101549.00;4914031;29;20043;-65
2021/12/06 06:38:23;;;;;;;34.33;16.00;;;;;;;0.33;53.62;101553.31;4935275;28;20066;-69
2021/12/06 06:40:49;;;;;;;40.47;15.98;;;;;;;0.41;53.63;101559.41;4912415;29;20183;-66
2021/12/06 06:43:14;;;;;;;42.08;17.98;;;;;;;0.41;53.80;101561.97;4920069;28;20043;-66
2021/12/06 06:45:40;;;;;;;36.00;15.93;;;;;;;0.43;53.64;101566.28;4919609;29;20075;-67
2021/12/06 06:48:05;;;;;;;40.17;16.50;;;;;;;0.47;53.49;101565.50;4919634;28;20043;-68
2021/12/06 06:50:31;;;;;;;34.28;16.05;;;;;;;0.43;53.73;101557.72;4919886;29;20437;-68
2021/12/06 06:52:57;;;;;;;40.05;17.40;;;;;;;0.42;53.60;101556.00;4915234;28;20049;-66
2021/12/06 06:55:25;;;;;;;34.03;15.80;;;;;;;0.44;53.45;101556.91;4917743;29;20036;-67
2021/12/06 06:57:52;;;;;;;39.58;16.15;;;;;;;0.36;54.03;101549.06;4919971;28;20046;-67
2021/12/06 07:00:21;;;;;;;36.70;15.70;;;;;;;0.43;53.66;101540.56;4919439;28;20027;-67
2021/12/06 07:02:47;;;;;;;37.60;15.27;;;;;;;0.30;54.08;101537.84;4918261;28;20087;-67
2021/12/06 07:05:13;;;;;;;34.22;15.68;;;;;;;0.38;53.67;101538.81;4920841;29;20027;-66
2021/12/06 07:07:39;;;;;;;38.88;16.38;;;;;;;0.28;53.62;101536.13;4916960;28;20111;-66
2021/12/06 07:10:06;;;;;;;34.60;16.80;;;;;;;0.38;53.70;101534.53;4920190;29;20126;-66
2021/12/06 07:12:40;;;;;;;32.38;15.35;;;;;;;0.37;53.93;101535.38;4934760;28;20252;-67
2021/12/06 07:15:06;;;;;;;39.25;17.60;;;;;;;0.38;53.75;101525.94;4920918;29;20038;-67
2021/12/06 07:17:32;;;;;;;31.90;16.77;;;;;;;0.38;53.69;101531.09;4919660;28;20044;-66
2021/12/06 07:19:57;;;;;;;35.47;16.95;;;;;;;0.19;53.84;101525.72;4919932;29;20054;-66
2021/12/06 07:22:22;;;;;;;34.15;16.23;;;;;;;0.30;54.03;101523.28;4918870;28;20051;-66
2021/12/06 07:24:48;;;;;;;38.83;16.38;;;;;;;0.24;53.76;101521.50;4913665;29;20505;-66
2021/12/06 07:27:14;;;;;;;33.03;15.60;;;;;;;0.12;54.29;101520.44;4913261;29;20039;-67
2021/12/06 07:29:40;;;;;;;34.08;16.02;;;;;;;0.21;54.01;101513.75;4935033;28;20484;-67
2021/12/06 07:32:06;;;;;;;31.02;16.08;;;;;;;0.16;54.04;101524.78;4930484;28;20123;-68
2021/12/06 07:34:32;;;;;;;33.90;15.35;;;;;;;0.24;54.33;101515.50;4933467;28;20547;-67
2021/12/06 07:36:57;;;;;;;35.05;15.25;;;;;;;0.18;54.38;101517.97;4917720;28;20469;-70
2021/12/06 07:39:23;;;;;;;38.55;16.05;;;;;;;0.13;54.54;101505.06;4913654;29;20040;-67
2021/12/06 07:41:48;;;;;;;41.28;18.08;;;;;;;0.13;54.58;101512.78;4916754;28;20036;-66
2021/12/06 07:44:14;;;;;;;43.42;18.23;;;;;;;0.18;54.38;101508.53;4911524;29;20111;-67
2021/12/06 07:46:39;;;;;;;33.78;15.50;;;;;;;0.23;54.18;101513.75;4919410;28;20479;-66
2021/12/06 07:49:05;;;;;;;46.92;18.13;;;;;;;0.23;54.13;101513.75;4919300;29;20435;-67
2021/12/06 07:51:30;;;;;;;41.15;16.73;;;;;;;0.29;53.94;101518.97;4920706;28;20051;-67
2021/12/06 07:53:57;;;;;;;37.70;16.05;;;;;;;0.36;54.11;101518.19;4916255;28;20032;-67
2021/12/06 07:56:24;;;;;;;41.33;17.42;;;;;;;0.23;54.22;101519.78;4911756;29;20044;-67
2021/12/06 07:58:50;;;;;;;40.47;18.50;;;;;;;0.01;55.08;101520.28;4931057;28;20540;-67
2021/12/06 08:01:17;;;;;;;39.65;18.45;;;;;;;0.21;54.33;101524.03;4920439;28;20044;-67
2021/12/06 08:03:43;;;;;;;39.13;18.33;;;;;;;0.30;54.07;101525.88;4914793;28;20043;-67
2021/12/06 08:06:10;;;;;;;44.88;19.05;;;;;;;0.10;54.66;101520.44;4919459;29;20036;-67
2021/12/06 08:08:38;;;;;;;39.58;18.50;;;;;;;-0.07;54.96;101521.91;4919758;28;20046;-67
2021/12/06 08:11:10;;;;;;;42.55;18.10;;;;;;;-0.01;54.78;101519.44;4911139;29;20048;-67
2021/12/06 08:13:38;;;;;;;46.72;19.27;;;;;;;0.07;54.31;101520.38;4914727;28;20036;-67
2021/12/06 08:16:09;;;;;;;39.30;18.00;;;;;;;-0.17;55.20;101516.63;4919195;29;20039;-67
2021/12/06 08:18:36;;;;;;;41.60;17.70;;;;;;;0.08;54.30;101527.28;4920802;28;20112;-67
2021/12/06 08:21:03;;;;;;;45.33;18.40;;;;;;;-0.07;54.71;101532.19;4938184;28;20046;-67
2021/12/06 08:23:29;;;;;;;41.42;18.85;;;;;;;-0.04;54.63;101527.09;4910467;29;20513;-67
2021/12/06 08:25:55;;;;;;;46.60;17.95;;;;;;;-0.22;55.08;101536.25;4932511;28;20028;-67
2021/12/06 08:28:23;;;;;;;44.28;18.33;;;;;;;-0.13;55.01;101538.09;4931509;28;20121;-67
2021/12/06 08:30:50;;;;;;;46.65;21.33;;;;;;;-0.32;55.18;101536.97;4917679;29;20032;-67
2021/12/06 08:33:16;;;;;;;39.33;19.25;;;;;;;-0.24;55.25;101534.50;4918044;28;20047;-67
2021/12/06 08:35:48;;;;;;;47.20;19.23;;;;;;;-0.20;54.67;101539.69;4916823;29;20039;-67
2021/12/06 08:38:14;;;;;;;;;;;;;;;-0.22;54.88;101540.53;4927246;28;20158;-67
2021/12/06 08:40:43;;;;;;;48.70;19.25;;;;;;;-0.06;54.44;101544.19;4917068;29;19914;-67
2021/12/06 08:43:16;;;;;;;39.65;18.92;;;;;;;0.11;53.96;101545.31;4912239;28;20402;-67
2021/12/06 08:45:44;;;;;;;45.03;19.15;;;;;;;0.09;53.97;101554.69;4916840;29;20047;-68
2021/12/06 08:48:10;;;;;;;41.70;18.98;;;;;;;-0.03;54.27;101549.38;4929247;28;20036;-67
2021/12/06 08:50:36;;;;;;;45.10;21.38;;;;;;;0.08;54.06;101535.00;4913783;29;20031;-67
2021/12/06 08:53:02;;;;;;;42.40;18.27;;;;;;;-0.04;54.58;101532.22;4916322;28;20565;-67
2021/12/06 08:55:28;;;;;;;47.38;18.98;;;;;;;-0.19;54.56;101523.47;4913659;29;20504;-67
2021/12/06 08:57:55;;;;;;;53.13;21.08;;;;;;;-0.18;54.84;101514.03;4912780;28;20052;-67
2021/12/06 09:00:31;;;;;;;44.20;19.17;;;;;;;0.06;54.34;101508.41;4913434;29;20118;-67
2021/12/06 09:02:57;;;;;;;51.00;19.98;;;;;;;0.41;53.82;101500.25;4912607;28;20040;-67
2021/12/06 09:05:28;;;;;;;44.47;19.98;;;;;;;0.72;53.32;101500.63;4916773;28;20095;-67
2021/12/06 09:07:54;;;;;;;43.03;18.58;;;;;;;0.77;53.00;101486.97;4912044;28;20093;-67
2021/12/06 09:10:19;;;;;;;40.08;18.27;;;;;;;0.74;52.75;101488.63;4915176;29;20043;-67
2021/12/06 09:12:45;;;;;;;44.70;17.58;;;;;;;0.66;52.65;101484.28;4925152;28;20038;-67
2021/12/06 09:15:14;;;;;;;45.47;19.42;;;;;;;0.53;52.49;101484.13;4930595;28;20020;-66
2021/12/06 09:17:40;;;;;;;39.35;18.75;;;;;;;0.39;52.47;101483.94;4913755;28;20120;-67
2021/12/06 09:20:08;;;;;;;42.85;19.58;;;;;;;0.20;52.98;101495.72;4913521;29;20040;-67
2021/12/06 09:22:34;;;;;;;45.88;19.30;;;;;;;-0.17;53.96;101501.22;4905205;29;20466;-67
2021/12/06 09:25:00;;;;;;;43.15;17.73;;;;;;;-0.18;53.84;101496.91;4918401;28;20553;-67
2021/12/06 09:27:27;;;;;;;47.80;18.52;;;;;;;-0.45;54.74;101492.22;4907940;28;20048;-67
2021/12/06 09:29:55;;;;;;;41.72;18.00;;;;;;;-0.33;54.84;101488.97;4912202;29;20050;-67
2021/12/06 09:32:21;;;;;;;39.08;17.63;;;;;;;-0.37;54.57;101485.50;4908695;28;20074;-66
2021/12/06 09:34:47;;;;;;;39.50;16.60;;;;;;;-0.30;54.40;101496.75;4915442;29;20051;-67
2021/12/06 09:37:15;;;;;;;41.50;17.08;;;;;;;-0.62;54.81;101499.66;4931170;28;20051;-67
2021/12/06 09:39:42;;;;;;;45.45;17.35;;;;;;;-0.33;54.56;101506.94;4909166;29;20053;-67
2021/12/06 09:42:08;;;;;;;38.05;15.32;;;;;;;-0.44;54.49;101508.50;4914636;28;20040;-67
2021/12/06 09:44:34;;;;;;;34.22;15.43;;;;;;;-0.38;54.40;101518.88;4930886;28;20035;-67
2021/12/06 09:47:00;;;;;;;55.42;19.25;;;;;;;-0.13;53.80;101522.66;4908157;28;20048;-67
2021/12/06 09:49:26;;;;;;;38.28;16.98;;;;;;;0.01;53.26;101520.28;4929702;28;20046;-67
2021/12/06 09:51:56;;;;;;;42.72;17.23;;;;;;;0.16;53.03;101523.09;4915679;28;20488;-67
2021/12/06 09:54:24;;;;;;;47.67;16.00;;;;;;;0.10;53.39;101519.56;4911044;28;20023;-67
2021/12/06 09:56:51;;;;;;;44.22;15.77;;;;;;;0.28;52.78;101520.69;4914374;28;20036;-67
2021/12/06 09:59:23;;;;;;;52.53;17.77;;;;;;;0.23;52.81;101518.88;4913913;28;20062;-67
2021/12/06 10:01:53;;;;;;;38.95;14.27;;;;;;;0.20;53.08;101517.16;4915851;28;20036;-67
2021/12/06 10:04:21;;;;;;;40.25;15.07;;;;;;;-0.11;54.08;101520.13;4910919;29;20518;-66
2021/12/06 10:06:48;;;;;;;41.65;16.95;;;;;;;0.01;53.06;101510.91;4908434;28;20036;-66
2021/12/06 10:09:14;;;;;;;42.33;16.88;;;;;;;-0.12;53.89;101511.56;4911743;29;20051;-66
2021/12/06 10:11:41;;;;;;;44.13;17.23;;;;;;;-0.16;54.06;101513.22;4916079;28;20051;-66
2021/12/06 10:14:07;;;;;;;34.33;15.10;;;;;;;0.07;53.29;101494.69;4915081;28;20441;-66
2021/12/06 10:16:33;;;;;;;32.15;13.75;;;;;;;-0.02;53.73;101499.69;4919737;28;20031;-67
2021/12/06 10:18:59;;;;;;;34.58;16.95;;;;;;;0.11;53.16;101486.19;4918500;28;20615;-66
2021/12/06 10:21:27;;;;;;;31.65;14.35;;;;;;;-0.01;53.62;101494.59;4917923;29;20288;-67
2021/12/06 10:23:54;;;;;;;38.88;14.90;;;;;;;0.05;53.30;101492.13;4918929;29;20047;-66
2021/12/06 10:26:23;;;;;;;38.72;14.40;;;;;;;-0.46;54.60;101493.09;4919972;29;20189;-67
2021/12/06 10:28:48;;;;;;;37.78;16.02;;;;;;;-0.10;53.94;101480.72;4917554;28;20077;-67
2021/12/06 10:31:15;;;;;;;47.75;15.32;;;;;;;0.19;53.27;101489.72;4918854;29;20129;-67
2021/12/06 10:33:47;;;;;;;32.05;14.02;;;;;;;0.33;52.98;101478.75;4936905;28;20070;-67
2021/12/06 10:36:16;;;;;;;35.38;12.95;;;;;;;0.47;52.88;101479.75;4916118;29;20055;-66
2021/12/06 10:38:47;;;;;;;29.20;14.55;;;;;;;0.46;52.39;101472.91;4913603;28;20423;-67
2021/12/06 10:41:16;;;;;;;28.90;12.55;;;;;;;0.40;52.80;101468.53;4919061;28;20040;-67
2021/12/06 10:43:56;;;;;;;29.00;13.60;;;;;;;-0.25;53.82;101473.69;4913535;28;20123;-66
2021/12/06 10:46:23;;;;;;;30.63;12.15;;;;;;;0.45;52.79;101472.03;4915788;29;20040;-66
2021/12/06 10:48:49;;;;;;;29.15;13.18;;;;;;;0.43;52.56;101475.41;4908835;28;20071;-66
2021/12/06 10:51:18;;;;;;;27.63;12.07;;;;;;;0.46;52.53;101472.91;4916259;29;20039;-68
2021/12/06 10:53:58;;;;;;;30.85;14.23;;;;;;;0.59;52.19;101469.63;4918833;28;20051;-66
2021/12/06 10:56:32;;;;;;;30.90;13.57;;;;;;;0.71;51.93;101462.88;4918696;29;20047;-66
2021/12/06 10:59:02;;;;;;;25.23;11.77;;;;;;;0.68;51.75;101459.44;4917304;28;20035;-67
2021/12/06 11:01:33;;;;;;;33.97;12.02;;;;;;;0.58;51.66;101452.44;4906366;29;20493;-66
2021/12/06 11:04:03;;;;;;;27.25;11.60;;;;;;;0.64;51.89;101457.66;4919005;28;20028;-66
2021/12/06 11:06:36;;;;;;;20.85;11.40;;;;;;;0.48;52.22;101456.63;4916717;29;20040;-67
2021/12/06 11:09:04;;;;;;;32.03;13.75;;;;;;;0.18;52.56;101441.69;4913176;29;20417;-66
2021/12/06 11:11:38;;;;;;;25.95;12.75;;;;;;;0.33;52.76;101445.31;4917628;29;20457;-66
2021/12/06 11:14:19;;;;;;;34.13;13.20;;;;;;;0.49;52.20;101439.50;4915054;28;20048;-66
2021/12/06 11:16:47;;;;;;;26.58;11.75;;;;;;;0.50;52.36;101433.50;4917352;28;20047;-66
2021/12/06 11:19:15;;;;;;;28.50;12.20;;;;;;;0.45;52.35;101430.00;4910610;29;20058;-66
2021/12/06 11:21:45;;;;;;;26.40;10.57;;;;;;;0.33;52.61;101424.75;4929865;28;20391;-67
2021/12/06 11:24:29;;;;;;;30.75;12.30;;;;;;;0.47;52.58;101424.03;4913978;29;20063;-66
2021/12/06 11:27:06;;;;;;;25.05;11.23;;;;;;;0.66;52.03;101419.97;4923059;28;20039;-67
2021/12/06 11:29:36;;;;;;;28.63;10.80;;;;;;;0.58;52.48;101424.16;4916137;29;20119;-67
2021/12/06 11:32:07;;;;;;;27.98;10.27;;;;;;;0.52;52.42;101416.38;4917942;28;20071;-66
2021/12/06 11:34:44;;;;;;;33.53;14.13;;;;;;;0.58;52.29;101421.56;4917826;29;20077;-66
2021/12/06 11:37:20;;;;;;;24.30;11.50;;;;;;;0.51;52.39;101421.50;4913375;28;20047;-66
2021/12/06 11:39:49;;;;;;;28.60;12.45;;;;;;;0.63;52.38;101425.06;4911760;29;20091;-66